sensor_id;sensor_type;location;lat;lon;timestamp;P1;durP1;ratioP1;P2;durP2;ratioP2
11121;SDS011;5615;49.304;10.576;2024-03-08T00:00:32;43.47;;;25.87;;
11121;SDS011;5615;49.304;10.576;2024-03-08T00:03:04;43.40;;;25.83;;
11121;SDS011;5615;49.304;10.576;2024-03-08T00:05:30;49.17;;;26.13;;
11121;SDS011;5615;49.304;10.576;2024-03-08T00:07:58;44.50;;;26.13;;
11121;SDS011;5615;49.304;10.576;2024-03-08T00:10:26;43.70;;;25.63;;
11121;SDS011;5615;49.304;10.576;2024-03-08T00:12:53;43.60;;;26.70;;
11121;SDS011;5615;49.304;10.576;2024-03-08T00:15:20;44.53;;;25.90;;
11121;SDS011;5615;49.304;10.576;2024-03-08T00:17:48;44.37;;;26.13;;
11121;SDS011;5615;49.304;10.576;2024-03-08T00:20:15;46.07;;;26.10;;
11121;SDS011;5615;49.304;10.576;2024-03-08T00:22:44;40.37;;;25.77;;
11121;SDS011;5615;49.304;10.576;2024-03-08T00:25:11;44.60;;;26.57;;
11121;SDS011;5615;49.304;10.576;2024-03-08T00:27:40;45.87;;;27.17;;
11121;SDS011;5615;49.304;10.576;2024-03-08T00:30:08;48.83;;;27.73;;
11121;SDS011;5615;49.304;10.576;2024-03-08T00:32:36;44.57;;;28.80;;
11121;SDS011;5615;49.304;10.576;2024-03-08T00:35:03;42.33;;;25.27;;
11121;SDS011;5615;49.304;10.576;2024-03-08T00:37:32;47.83;;;27.67;;
11121;SDS011;5615;49.304;10.576;2024-03-08T00:39:59;48.53;;;27.90;;
11121;SDS011;5615;49.304;10.576;2024-03-08T00:42:27;48.27;;;28.10;;
11121;SDS011;5615;49.304;10.576;2024-03-08T00:44:56;46.87;;;28.20;;
11121;SDS011;5615;49.304;10.576;2024-03-08T00:47:23;48.70;;;27.07;;
11121;SDS011;5615;49.304;10.576;2024-03-08T00:49:49;47.07;;;26.43;;
11121;SDS011;5615;49.304;10.576;2024-03-08T00:52:16;49.53;;;28.83;;
11121;SDS011;5615;49.304;10.576;2024-03-08T00:54:43;51.50;;;27.83;;
11121;SDS011;5615;49.304;10.576;2024-03-08T00:57:10;50.27;;;27.60;;
11121;SDS011;5615;49.304;10.576;2024-03-08T00:59:37;53.17;;;29.37;;
11121;SDS011;5615;49.304;10.576;2024-03-08T01:02:05;49.87;;;27.90;;
11121;SDS011;5615;49.304;10.576;2024-03-08T01:04:34;51.03;;;29.57;;
11121;SDS011;5615;49.304;10.576;2024-03-08T01:07:01;49.60;;;28.10;;
11121;SDS011;5615;49.304;10.576;2024-03-08T01:09:28;51.83;;;28.30;;
11121;SDS011;5615;49.304;10.576;2024-03-08T01:11:55;46.37;;;27.07;;
11121;SDS011;5615;49.304;10.576;2024-03-08T01:14:22;51.73;;;28.60;;
11121;SDS011;5615;49.304;10.576;2024-03-08T01:16:50;50.60;;;27.93;;
11121;SDS011;5615;49.304;10.576;2024-03-08T01:19:19;48.57;;;27.70;;
11121;SDS011;5615;49.304;10.576;2024-03-08T01:21:45;52.57;;;29.73;;
11121;SDS011;5615;49.304;10.576;2024-03-08T01:24:12;53.37;;;29.00;;
11121;SDS011;5615;49.304;10.576;2024-03-08T01:26:39;48.77;;;29.00;;
11121;SDS011;5615;49.304;10.576;2024-03-08T01:29:06;51.47;;;28.70;;
11121;SDS011;5615;49.304;10.576;2024-03-08T01:31:33;52.73;;;28.13;;
11121;SDS011;5615;49.304;10.576;2024-03-08T01:34:01;52.90;;;29.50;;
11121;SDS011;5615;49.304;10.576;2024-03-08T01:36:29;51.60;;;29.00;;
11121;SDS011;5615;49.304;10.576;2024-03-08T01:38:59;51.53;;;30.03;;
11121;SDS011;5615;49.304;10.576;2024-03-08T01:41:26;49.03;;;27.37;;
11121;SDS011;5615;49.304;10.576;2024-03-08T01:43:54;51.50;;;28.93;;
11121;SDS011;5615;49.304;10.576;2024-03-08T01:46:21;55.53;;;30.50;;
11121;SDS011;5615;49.304;10.576;2024-03-08T01:48:49;55.87;;;31.10;;
11121;SDS011;5615;49.304;10.576;2024-03-08T01:51:17;54.03;;;29.03;;
11121;SDS011;5615;49.304;10.576;2024-03-08T01:53:46;54.17;;;29.97;;
11121;SDS011;5615;49.304;10.576;2024-03-08T01:56:14;52.63;;;29.67;;
11121;SDS011;5615;49.304;10.576;2024-03-08T01:58:41;57.87;;;30.90;;
11121;SDS011;5615;49.304;10.576;2024-03-08T02:01:12;53.93;;;30.33;;
11121;SDS011;5615;49.304;10.576;2024-03-08T02:03:41;57.60;;;31.30;;
11121;SDS011;5615;49.304;10.576;2024-03-08T02:06:08;59.03;;;30.87;;
11121;SDS011;5615;49.304;10.576;2024-03-08T02:08:35;60.10;;;30.97;;
11121;SDS011;5615;49.304;10.576;2024-03-08T02:11:04;62.37;;;31.67;;
11121;SDS011;5615;49.304;10.576;2024-03-08T02:13:31;60.63;;;31.87;;
11121;SDS011;5615;49.304;10.576;2024-03-08T02:16:02;67.53;;;31.77;;
11121;SDS011;5615;49.304;10.576;2024-03-08T02:18:31;58.23;;;30.73;;
11121;SDS011;5615;49.304;10.576;2024-03-08T02:21:01;55.47;;;30.97;;
11121;SDS011;5615;49.304;10.576;2024-03-08T02:23:29;58.90;;;29.60;;
11121;SDS011;5615;49.304;10.576;2024-03-08T02:26:00;59.37;;;31.70;;
11121;SDS011;5615;49.304;10.576;2024-03-08T02:28:31;64.13;;;32.63;;
11121;SDS011;5615;49.304;10.576;2024-03-08T02:30:57;59.30;;;31.90;;
11121;SDS011;5615;49.304;10.576;2024-03-08T02:33:25;55.50;;;31.27;;
11121;SDS011;5615;49.304;10.576;2024-03-08T02:35:51;62.80;;;31.73;;
11121;SDS011;5615;49.304;10.576;2024-03-08T02:38:20;63.97;;;32.53;;
11121;SDS011;5615;49.304;10.576;2024-03-08T02:40:49;67.90;;;34.33;;
11121;SDS011;5615;49.304;10.576;2024-03-08T02:43:17;60.90;;;32.80;;
11121;SDS011;5615;49.304;10.576;2024-03-08T02:45:49;67.23;;;31.60;;
11121;SDS011;5615;49.304;10.576;2024-03-08T02:48:17;62.77;;;32.10;;
11121;SDS011;5615;49.304;10.576;2024-03-08T02:50:46;62.77;;;33.80;;
11121;SDS011;5615;49.304;10.576;2024-03-08T02:53:13;62.37;;;32.20;;
11121;SDS011;5615;49.304;10.576;2024-03-08T02:55:41;62.93;;;32.47;;
11121;SDS011;5615;49.304;10.576;2024-03-08T02:58:08;63.13;;;34.30;;
11121;SDS011;5615;49.304;10.576;2024-03-08T03:00:35;61.70;;;32.80;;
11121;SDS011;5615;49.304;10.576;2024-03-08T03:03:03;65.60;;;33.23;;
11121;SDS011;5615;49.304;10.576;2024-03-08T03:05:31;68.97;;;34.20;;
11121;SDS011;5615;49.304;10.576;2024-03-08T03:07:58;61.83;;;33.87;;
11121;SDS011;5615;49.304;10.576;2024-03-08T03:10:25;66.53;;;32.87;;
11121;SDS011;5615;49.304;10.576;2024-03-08T03:12:55;69.50;;;35.33;;
11121;SDS011;5615;49.304;10.576;2024-03-08T03:15:23;65.50;;;34.80;;
11121;SDS011;5615;49.304;10.576;2024-03-08T03:17:50;67.20;;;34.67;;
11121;SDS011;5615;49.304;10.576;2024-03-08T03:20:19;67.60;;;34.20;;
11121;SDS011;5615;49.304;10.576;2024-03-08T03:22:51;67.10;;;33.47;;
11121;SDS011;5615;49.304;10.576;2024-03-08T03:25:18;69.03;;;33.77;;
11121;SDS011;5615;49.304;10.576;2024-03-08T03:27:51;66.17;;;33.33;;
11121;SDS011;5615;49.304;10.576;2024-03-08T03:30:19;67.57;;;33.50;;
11121;SDS011;5615;49.304;10.576;2024-03-08T03:32:46;65.63;;;34.97;;
11121;SDS011;5615;49.304;10.576;2024-03-08T03:35:14;68.27;;;34.80;;
11121;SDS011;5615;49.304;10.576;2024-03-08T03:37:41;69.80;;;34.27;;
11121;SDS011;5615;49.304;10.576;2024-03-08T03:40:10;73.23;;;34.83;;
11121;SDS011;5615;49.304;10.576;2024-03-08T03:42:39;72.90;;;36.07;;
11121;SDS011;5615;49.304;10.576;2024-03-08T03:45:06;76.87;;;35.87;;
11121;SDS011;5615;49.304;10.576;2024-03-08T03:47:35;67.30;;;35.23;;
11121;SDS011;5615;49.304;10.576;2024-03-08T03:50:05;66.53;;;33.27;;
11121;SDS011;5615;49.304;10.576;2024-03-08T03:52:36;67.70;;;34.73;;
11121;SDS011;5615;49.304;10.576;2024-03-08T03:55:03;74.93;;;36.17;;
11121;SDS011;5615;49.304;10.576;2024-03-08T03:57:30;74.10;;;38.00;;
11121;SDS011;5615;49.304;10.576;2024-03-08T03:59:58;68.40;;;35.67;;
11121;SDS011;5615;49.304;10.576;2024-03-08T04:02:27;68.77;;;37.23;;
11121;SDS011;5615;49.304;10.576;2024-03-08T04:04:56;68.23;;;36.20;;
11121;SDS011;5615;49.304;10.576;2024-03-08T04:07:25;68.97;;;36.00;;
11121;SDS011;5615;49.304;10.576;2024-03-08T04:09:52;70.93;;;36.47;;
11121;SDS011;5615;49.304;10.576;2024-03-08T04:12:19;73.93;;;36.87;;
11121;SDS011;5615;49.304;10.576;2024-03-08T04:14:45;66.67;;;36.33;;
11121;SDS011;5615;49.304;10.576;2024-03-08T04:17:12;73.20;;;37.63;;
11121;SDS011;5615;49.304;10.576;2024-03-08T04:19:39;73.87;;;36.47;;
11121;SDS011;5615;49.304;10.576;2024-03-08T04:22:09;68.80;;;36.43;;
11121;SDS011;5615;49.304;10.576;2024-03-08T04:24:36;69.43;;;34.90;;
11121;SDS011;5615;49.304;10.576;2024-03-08T04:27:05;73.67;;;36.90;;
11121;SDS011;5615;49.304;10.576;2024-03-08T04:29:32;74.47;;;38.57;;
11121;SDS011;5615;49.304;10.576;2024-03-08T04:31:59;66.93;;;34.87;;
11121;SDS011;5615;49.304;10.576;2024-03-08T04:34:28;72.63;;;35.57;;
11121;SDS011;5615;49.304;10.576;2024-03-08T04:36:56;73.70;;;37.70;;
11121;SDS011;5615;49.304;10.576;2024-03-08T04:39:27;76.23;;;38.10;;
11121;SDS011;5615;49.304;10.576;2024-03-08T04:41:54;72.47;;;38.30;;
11121;SDS011;5615;49.304;10.576;2024-03-08T04:44:21;76.30;;;37.30;;
11121;SDS011;5615;49.304;10.576;2024-03-08T04:46:49;68.73;;;37.40;;
11121;SDS011;5615;49.304;10.576;2024-03-08T04:49:16;74.63;;;37.43;;
11121;SDS011;5615;49.304;10.576;2024-03-08T04:51:42;73.57;;;38.07;;
11121;SDS011;5615;49.304;10.576;2024-03-08T04:54:11;78.07;;;37.97;;
11121;SDS011;5615;49.304;10.576;2024-03-08T04:56:39;78.23;;;37.37;;
11121;SDS011;5615;49.304;10.576;2024-03-08T04:59:06;71.53;;;37.57;;
11121;SDS011;5615;49.304;10.576;2024-03-08T05:01:33;73.17;;;37.27;;
11121;SDS011;5615;49.304;10.576;2024-03-08T05:04:01;73.37;;;37.17;;
11121;SDS011;5615;49.304;10.576;2024-03-08T05:06:28;69.53;;;38.03;;
11121;SDS011;5615;49.304;10.576;2024-03-08T05:08:55;71.83;;;37.20;;
11121;SDS011;5615;49.304;10.576;2024-03-08T05:11:22;74.13;;;37.37;;
11121;SDS011;5615;49.304;10.576;2024-03-08T05:13:50;66.97;;;35.90;;
11121;SDS011;5615;49.304;10.576;2024-03-08T05:16:16;76.07;;;37.63;;
11121;SDS011;5615;49.304;10.576;2024-03-08T05:18:43;78.20;;;39.10;;
11121;SDS011;5615;49.304;10.576;2024-03-08T05:21:12;69.63;;;37.67;;
11121;SDS011;5615;49.304;10.576;2024-03-08T05:23:39;68.27;;;36.27;;
11121;SDS011;5615;49.304;10.576;2024-03-08T05:26:05;73.13;;;37.07;;
11121;SDS011;5615;49.304;10.576;2024-03-08T05:28:32;73.47;;;37.63;;
11121;SDS011;5615;49.304;10.576;2024-03-08T05:31:00;70.70;;;36.60;;
11121;SDS011;5615;49.304;10.576;2024-03-08T05:33:27;72.63;;;37.80;;
11121;SDS011;5615;49.304;10.576;2024-03-08T05:35:54;75.20;;;38.13;;
11121;SDS011;5615;49.304;10.576;2024-03-08T05:38:21;76.20;;;38.33;;
11121;SDS011;5615;49.304;10.576;2024-03-08T05:40:49;75.03;;;38.37;;
11121;SDS011;5615;49.304;10.576;2024-03-08T05:43:16;74.10;;;38.10;;
11121;SDS011;5615;49.304;10.576;2024-03-08T05:45:46;71.73;;;38.53;;
11121;SDS011;5615;49.304;10.576;2024-03-08T05:48:16;81.43;;;39.93;;
11121;SDS011;5615;49.304;10.576;2024-03-08T05:50:43;76.87;;;38.80;;
11121;SDS011;5615;49.304;10.576;2024-03-08T05:53:10;73.70;;;38.47;;
11121;SDS011;5615;49.304;10.576;2024-03-08T05:55:38;76.37;;;38.67;;
11121;SDS011;5615;49.304;10.576;2024-03-08T05:58:06;73.40;;;38.87;;
11121;SDS011;5615;49.304;10.576;2024-03-08T06:00:36;70.70;;;37.97;;
11121;SDS011;5615;49.304;10.576;2024-03-08T06:03:03;74.90;;;38.00;;
11121;SDS011;5615;49.304;10.576;2024-03-08T06:05:31;75.33;;;38.60;;
11121;SDS011;5615;49.304;10.576;2024-03-08T06:07:58;78.33;;;39.40;;
11121;SDS011;5615;49.304;10.576;2024-03-08T06:10:27;73.43;;;37.73;;
11121;SDS011;5615;49.304;10.576;2024-03-08T06:12:54;75.73;;;38.80;;
11121;SDS011;5615;49.304;10.576;2024-03-08T06:15:20;72.10;;;38.80;;
11121;SDS011;5615;49.304;10.576;2024-03-08T06:17:47;77.57;;;38.20;;
11121;SDS011;5615;49.304;10.576;2024-03-08T06:20:14;76.93;;;39.87;;
11121;SDS011;5615;49.304;10.576;2024-03-08T06:22:42;75.90;;;40.40;;
11121;SDS011;5615;49.304;10.576;2024-03-08T06:25:10;77.57;;;39.07;;
11121;SDS011;5615;49.304;10.576;2024-03-08T06:27:38;76.97;;;39.10;;
11121;SDS011;5615;49.304;10.576;2024-03-08T06:30:06;76.13;;;37.93;;
11121;SDS011;5615;49.304;10.576;2024-03-08T06:32:34;76.07;;;39.57;;
11121;SDS011;5615;49.304;10.576;2024-03-08T06:35:02;76.17;;;41.23;;
11121;SDS011;5615;49.304;10.576;2024-03-08T06:37:31;78.27;;;39.67;;
11121;SDS011;5615;49.304;10.576;2024-03-08T06:39:59;72.27;;;38.00;;
11121;SDS011;5615;49.304;10.576;2024-03-08T06:42:25;81.77;;;41.03;;
11121;SDS011;5615;49.304;10.576;2024-03-08T06:44:58;76.70;;;38.80;;
11121;SDS011;5615;49.304;10.576;2024-03-08T06:47:29;75.47;;;39.20;;
11121;SDS011;5615;49.304;10.576;2024-03-08T06:49:59;73.53;;;39.40;;
11121;SDS011;5615;49.304;10.576;2024-03-08T06:52:26;73.33;;;40.07;;
11121;SDS011;5615;49.304;10.576;2024-03-08T06:54:53;76.63;;;39.60;;
11121;SDS011;5615;49.304;10.576;2024-03-08T06:57:21;70.63;;;37.83;;
11121;SDS011;5615;49.304;10.576;2024-03-08T06:59:47;73.60;;;38.90;;
11121;SDS011;5615;49.304;10.576;2024-03-08T07:02:14;70.80;;;38.43;;
11121;SDS011;5615;49.304;10.576;2024-03-08T07:04:41;72.43;;;38.47;;
11121;SDS011;5615;49.304;10.576;2024-03-08T07:07:08;64.97;;;37.03;;
11121;SDS011;5615;49.304;10.576;2024-03-08T07:09:35;70.30;;;37.60;;
11121;SDS011;5615;49.304;10.576;2024-03-08T07:12:03;63.77;;;36.30;;
11121;SDS011;5615;49.304;10.576;2024-03-08T07:14:31;65.70;;;37.50;;
11121;SDS011;5615;49.304;10.576;2024-03-08T07:16:58;61.90;;;36.27;;
11121;SDS011;5615;49.304;10.576;2024-03-08T07:19:24;62.80;;;36.13;;
11121;SDS011;5615;49.304;10.576;2024-03-08T07:21:51;54.57;;;33.70;;
11121;SDS011;5615;49.304;10.576;2024-03-08T07:24:17;61.27;;;33.90;;
11121;SDS011;5615;49.304;10.576;2024-03-08T07:27:03;60.83;;;33.73;;
11121;SDS011;5615;49.304;10.576;2024-03-08T07:29:31;56.23;;;34.53;;
11121;SDS011;5615;49.304;10.576;2024-03-08T07:31:58;55.80;;;33.47;;
11121;SDS011;5615;49.304;10.576;2024-03-08T07:34:37;55.37;;;34.50;;
11121;SDS011;5615;49.304;10.576;2024-03-08T07:37:05;50.43;;;31.30;;
11121;SDS011;5615;49.304;10.576;2024-03-08T07:39:32;49.67;;;31.33;;
11121;SDS011;5615;49.304;10.576;2024-03-08T07:42:00;51.20;;;32.17;;
11121;SDS011;5615;49.304;10.576;2024-03-08T07:44:27;46.40;;;29.30;;
11121;SDS011;5615;49.304;10.576;2024-03-08T07:46:56;45.50;;;29.87;;
11121;SDS011;5615;49.304;10.576;2024-03-08T07:49:22;45.80;;;29.00;;
11121;SDS011;5615;49.304;10.576;2024-03-08T07:51:49;51.00;;;30.73;;
11121;SDS011;5615;49.304;10.576;2024-03-08T07:54:16;45.80;;;29.13;;
11121;SDS011;5615;49.304;10.576;2024-03-08T07:56:43;41.10;;;27.60;;
11121;SDS011;5615;49.304;10.576;2024-03-08T07:59:10;45.00;;;27.43;;
11121;SDS011;5615;49.304;10.576;2024-03-08T08:01:37;40.10;;;27.00;;
11121;SDS011;5615;49.304;10.576;2024-03-08T08:04:05;36.53;;;24.40;;
11121;SDS011;5615;49.304;10.576;2024-03-08T08:06:37;37.60;;;25.47;;
11121;SDS011;5615;49.304;10.576;2024-03-08T08:09:05;39.00;;;25.93;;
11121;SDS011;5615;49.304;10.576;2024-03-08T08:11:34;38.30;;;26.53;;
11121;SDS011;5615;49.304;10.576;2024-03-08T08:14:01;37.50;;;24.73;;
11121;SDS011;5615;49.304;10.576;2024-03-08T08:16:28;34.77;;;23.87;;
11121;SDS011;5615;49.304;10.576;2024-03-08T08:18:55;34.70;;;23.63;;
11121;SDS011;5615;49.304;10.576;2024-03-08T08:21:23;35.80;;;24.13;;
11121;SDS011;5615;49.304;10.576;2024-03-08T08:23:51;35.83;;;23.30;;
11121;SDS011;5615;49.304;10.576;2024-03-08T08:26:17;33.23;;;23.00;;
11121;SDS011;5615;49.304;10.576;2024-03-08T08:28:46;33.83;;;22.93;;
11121;SDS011;5615;49.304;10.576;2024-03-08T08:31:12;30.57;;;21.03;;
11121;SDS011;5615;49.304;10.576;2024-03-08T08:33:39;29.23;;;21.27;;
11121;SDS011;5615;49.304;10.576;2024-03-08T08:36:06;28.80;;;20.87;;
11121;SDS011;5615;49.304;10.576;2024-03-08T08:38:36;30.73;;;21.07;;
11121;SDS011;5615;49.304;10.576;2024-03-08T08:41:07;27.67;;;20.27;;
11121;SDS011;5615;49.304;10.576;2024-03-08T08:43:37;28.70;;;20.00;;
11121;SDS011;5615;49.304;10.576;2024-03-08T08:46:12;28.40;;;20.17;;
11121;SDS011;5615;49.304;10.576;2024-03-08T08:48:43;28.10;;;19.43;;
11121;SDS011;5615;49.304;10.576;2024-03-08T08:51:10;29.27;;;19.40;;
11121;SDS011;5615;49.304;10.576;2024-03-08T08:53:40;27.13;;;19.27;;
11121;SDS011;5615;49.304;10.576;2024-03-08T08:56:08;27.83;;;18.50;;
11121;SDS011;5615;49.304;10.576;2024-03-08T08:58:39;28.70;;;19.37;;
11121;SDS011;5615;49.304;10.576;2024-03-08T09:01:07;29.17;;;19.30;;
11121;SDS011;5615;49.304;10.576;2024-03-08T09:03:35;26.33;;;19.17;;
11121;SDS011;5615;49.304;10.576;2024-03-08T09:06:04;26.37;;;18.87;;
11121;SDS011;5615;49.304;10.576;2024-03-08T09:08:34;25.83;;;19.40;;
11121;SDS011;5615;49.304;10.576;2024-03-08T09:11:03;27.03;;;19.00;;
11121;SDS011;5615;49.304;10.576;2024-03-08T09:13:30;25.03;;;18.47;;
11121;SDS011;5615;49.304;10.576;2024-03-08T09:15:58;23.83;;;19.07;;
11121;SDS011;5615;49.304;10.576;2024-03-08T09:18:25;26.23;;;18.53;;
11121;SDS011;5615;49.304;10.576;2024-03-08T09:20:52;25.80;;;18.70;;
11121;SDS011;5615;49.304;10.576;2024-03-08T09:23:20;28.20;;;18.60;;
11121;SDS011;5615;49.304;10.576;2024-03-08T09:25:47;23.20;;;17.83;;
11121;SDS011;5615;49.304;10.576;2024-03-08T09:28:15;24.20;;;17.40;;
11121;SDS011;5615;49.304;10.576;2024-03-08T09:30:42;25.23;;;17.97;;
11121;SDS011;5615;49.304;10.576;2024-03-08T09:33:09;22.10;;;17.23;;
11121;SDS011;5615;49.304;10.576;2024-03-08T09:35:36;25.73;;;18.73;;
11121;SDS011;5615;49.304;10.576;2024-03-08T09:38:03;24.13;;;18.30;;
11121;SDS011;5615;49.304;10.576;2024-03-08T09:40:30;22.73;;;17.77;;
11121;SDS011;5615;49.304;10.576;2024-03-08T09:42:57;22.63;;;17.27;;
11121;SDS011;5615;49.304;10.576;2024-03-08T09:45:25;22.00;;;16.17;;
11121;SDS011;5615;49.304;10.576;2024-03-08T09:47:54;20.37;;;16.57;;
11121;SDS011;5615;49.304;10.576;2024-03-08T09:50:21;21.93;;;16.73;;
11121;SDS011;5615;49.304;10.576;2024-03-08T09:52:48;21.17;;;16.13;;
11121;SDS011;5615;49.304;10.576;2024-03-08T09:55:16;21.70;;;16.77;;
11121;SDS011;5615;49.304;10.576;2024-03-08T09:57:47;19.63;;;16.07;;
11121;SDS011;5615;49.304;10.576;2024-03-08T10:00:32;20.47;;;15.40;;
11121;SDS011;5615;49.304;10.576;2024-03-08T10:03:00;20.90;;;15.77;;
11121;SDS011;5615;49.304;10.576;2024-03-08T10:05:27;20.43;;;16.10;;
11121;SDS011;5615;49.304;10.576;2024-03-08T10:07:54;18.80;;;15.97;;
11121;SDS011;5615;49.304;10.576;2024-03-08T10:10:21;18.90;;;15.90;;
11121;SDS011;5615;49.304;10.576;2024-03-08T10:12:48;18.63;;;14.97;;
11121;SDS011;5615;49.304;10.576;2024-03-08T10:15:15;17.77;;;15.25;;
11121;SDS011;5615;49.304;10.576;2024-03-08T10:17:44;19.20;;;15.45;;
11121;SDS011;5615;49.304;10.576;2024-03-08T10:20:13;19.33;;;16.08;;
11121;SDS011;5615;49.304;10.576;2024-03-08T10:22:40;18.35;;;15.40;;
11121;SDS011;5615;49.304;10.576;2024-03-08T10:25:09;17.80;;;15.07;;
11121;SDS011;5615;49.304;10.576;2024-03-08T10:27:36;17.42;;;15.10;;
11121;SDS011;5615;49.304;10.576;2024-03-08T10:30:06;16.73;;;14.93;;
11121;SDS011;5615;49.304;10.576;2024-03-08T10:32:37;18.17;;;14.85;;
11121;SDS011;5615;49.304;10.576;2024-03-08T10:35:05;17.85;;;14.95;;
11121;SDS011;5615;49.304;10.576;2024-03-08T10:37:33;17.10;;;15.30;;
11121;SDS011;5615;49.304;10.576;2024-03-08T10:40:09;17.00;;;15.15;;
11121;SDS011;5615;49.304;10.576;2024-03-08T10:42:41;16.77;;;14.98;;
11121;SDS011;5615;49.304;10.576;2024-03-08T10:45:19;16.05;;;14.35;;
11121;SDS011;5615;49.304;10.576;2024-03-08T10:47:54;17.27;;;15.48;;
11121;SDS011;5615;49.304;10.576;2024-03-08T10:50:42;20.02;;;14.85;;
11121;SDS011;5615;49.304;10.576;2024-03-08T10:53:11;19.90;;;15.68;;
11121;SDS011;5615;49.304;10.576;2024-03-08T10:55:40;17.08;;;15.27;;
11121;SDS011;5615;49.304;10.576;2024-03-08T10:58:08;16.15;;;14.43;;
11121;SDS011;5615;49.304;10.576;2024-03-08T11:00:35;16.90;;;15.18;;
11121;SDS011;5615;49.304;10.576;2024-03-08T11:03:02;15.95;;;14.35;;
11121;SDS011;5615;49.304;10.576;2024-03-08T11:05:36;15.85;;;14.13;;
11121;SDS011;5615;49.304;10.576;2024-03-08T11:08:08;15.35;;;13.82;;
11121;SDS011;5615;49.304;10.576;2024-03-08T11:10:47;16.15;;;14.48;;
11121;SDS011;5615;49.304;10.576;2024-03-08T11:13:35;16.15;;;14.50;;
11121;SDS011;5615;49.304;10.576;2024-03-08T11:16:03;16.80;;;14.00;;
11121;SDS011;5615;49.304;10.576;2024-03-08T11:18:34;16.50;;;13.73;;
11121;SDS011;5615;49.304;10.576;2024-03-08T11:21:02;15.85;;;13.55;;
11121;SDS011;5615;49.304;10.576;2024-03-08T11:23:33;16.10;;;14.38;;
11121;SDS011;5615;49.304;10.576;2024-03-08T11:26:00;15.65;;;13.98;;
11121;SDS011;5615;49.304;10.576;2024-03-08T11:28:29;15.32;;;13.75;;
11121;SDS011;5615;49.304;10.576;2024-03-08T11:33:51;15.18;;;13.68;;
11121;SDS011;5615;49.304;10.576;2024-03-08T11:36:20;16.38;;;14.77;;
11121;SDS011;5615;49.304;10.576;2024-03-08T11:38:49;16.05;;;14.35;;
11121;SDS011;5615;49.304;10.576;2024-03-08T11:41:18;15.43;;;13.23;;
11121;SDS011;5615;49.304;10.576;2024-03-08T11:43:46;15.70;;;13.32;;
11121;SDS011;5615;49.304;10.576;2024-03-08T11:46:13;14.57;;;13.20;;
11121;SDS011;5615;49.304;10.576;2024-03-08T11:48:40;13.80;;;12.50;;
11121;SDS011;5615;49.304;10.576;2024-03-08T11:51:08;13.50;;;12.23;;
11121;SDS011;5615;49.304;10.576;2024-03-08T11:53:36;14.27;;;12.77;;
11121;SDS011;5615;49.304;10.576;2024-03-08T11:56:08;13.32;;;11.88;;
11121;SDS011;5615;49.304;10.576;2024-03-08T11:58:36;13.77;;;12.27;;
11121;SDS011;5615;49.304;10.576;2024-03-08T12:01:03;13.65;;;12.13;;
11121;SDS011;5615;49.304;10.576;2024-03-08T12:03:32;15.23;;;12.10;;
11121;SDS011;5615;49.304;10.576;2024-03-08T12:05:59;13.07;;;11.88;;
11121;SDS011;5615;49.304;10.576;2024-03-08T12:08:26;13.10;;;11.63;;
11121;SDS011;5615;49.304;10.576;2024-03-08T12:10:53;13.13;;;11.82;;
11121;SDS011;5615;49.304;10.576;2024-03-08T12:13:25;14.30;;;12.90;;
11121;SDS011;5615;49.304;10.576;2024-03-08T12:15:54;13.82;;;12.35;;
11121;SDS011;5615;49.304;10.576;2024-03-08T12:18:22;13.07;;;11.38;;
11121;SDS011;5615;49.304;10.576;2024-03-08T12:20:48;12.65;;;11.45;;
11121;SDS011;5615;49.304;10.576;2024-03-08T12:23:15;12.40;;;11.13;;
11121;SDS011;5615;49.304;10.576;2024-03-08T12:25:42;12.35;;;11.25;;
11121;SDS011;5615;49.304;10.576;2024-03-08T12:28:09;12.43;;;11.23;;
11121;SDS011;5615;49.304;10.576;2024-03-08T12:30:45;12.32;;;11.13;;
11121;SDS011;5615;49.304;10.576;2024-03-08T12:33:14;12.57;;;11.40;;
11121;SDS011;5615;49.304;10.576;2024-03-08T12:35:46;13.07;;;11.88;;
11121;SDS011;5615;49.304;10.576;2024-03-08T12:38:18;12.90;;;11.70;;
11121;SDS011;5615;49.304;10.576;2024-03-08T12:40:49;13.10;;;11.93;;
11121;SDS011;5615;49.304;10.576;2024-03-08T12:43:17;12.30;;;11.10;;
11121;SDS011;5615;49.304;10.576;2024-03-08T12:45:45;13.05;;;11.70;;
11121;SDS011;5615;49.304;10.576;2024-03-08T12:48:12;13.45;;;12.15;;
11121;SDS011;5615;49.304;10.576;2024-03-08T12:50:40;12.75;;;11.35;;
11121;SDS011;5615;49.304;10.576;2024-03-08T12:53:08;12.48;;;11.38;;
11121;SDS011;5615;49.304;10.576;2024-03-08T12:55:35;12.38;;;11.07;;
11121;SDS011;5615;49.304;10.576;2024-03-08T12:58:03;13.32;;;12.02;;
11121;SDS011;5615;49.304;10.576;2024-03-08T13:00:32;13.02;;;11.73;;
11121;SDS011;5615;49.304;10.576;2024-03-08T13:03:02;13.50;;;12.13;;
11121;SDS011;5615;49.304;10.576;2024-03-08T13:05:31;12.25;;;11.10;;
11121;SDS011;5615;49.304;10.576;2024-03-08T13:07:58;12.05;;;10.95;;
11121;SDS011;5615;49.304;10.576;2024-03-08T13:10:24;12.02;;;10.93;;
11121;SDS011;5615;49.304;10.576;2024-03-08T13:12:51;12.48;;;11.18;;
11121;SDS011;5615;49.304;10.576;2024-03-08T13:15:19;12.15;;;11.05;;
11121;SDS011;5615;49.304;10.576;2024-03-08T13:17:46;12.48;;;11.25;;
11121;SDS011;5615;49.304;10.576;2024-03-08T13:20:15;11.60;;;10.50;;
11121;SDS011;5615;49.304;10.576;2024-03-08T13:22:44;12.75;;;11.48;;
11121;SDS011;5615;49.304;10.576;2024-03-08T13:25:11;11.88;;;10.77;;
11121;SDS011;5615;49.304;10.576;2024-03-08T13:27:39;11.38;;;10.27;;
11121;SDS011;5615;49.304;10.576;2024-03-08T13:30:06;10.00;;;9.00;;
11121;SDS011;5615;49.304;10.576;2024-03-08T13:32:37;9.85;;;8.93;;
11121;SDS011;5615;49.304;10.576;2024-03-08T13:35:05;10.13;;;9.13;;
11121;SDS011;5615;49.304;10.576;2024-03-08T13:37:38;10.93;;;9.93;;
11121;SDS011;5615;49.304;10.576;2024-03-08T13:40:06;10.60;;;9.57;;
11121;SDS011;5615;49.304;10.576;2024-03-08T13:42:35;9.75;;;8.75;;
11121;SDS011;5615;49.304;10.576;2024-03-08T13:45:03;10.43;;;9.35;;
11121;SDS011;5615;49.304;10.576;2024-03-08T13:47:32;10.27;;;9.23;;
11121;SDS011;5615;49.304;10.576;2024-03-08T13:49:59;10.27;;;9.27;;
11121;SDS011;5615;49.304;10.576;2024-03-08T13:52:26;9.60;;;8.70;;
11121;SDS011;5615;49.304;10.576;2024-03-08T13:54:55;8.95;;;8.15;;
11121;SDS011;5615;49.304;10.576;2024-03-08T13:57:22;9.07;;;8.18;;
11121;SDS011;5615;49.304;10.576;2024-03-08T13:59:49;9.80;;;8.90;;
11121;SDS011;5615;49.304;10.576;2024-03-08T14:02:16;9.35;;;8.45;;
11121;SDS011;5615;49.304;10.576;2024-03-08T14:04:43;9.07;;;8.27;;
11121;SDS011;5615;49.304;10.576;2024-03-08T14:07:10;8.88;;;8.18;;
11121;SDS011;5615;49.304;10.576;2024-03-08T14:09:36;9.18;;;8.38;;
11121;SDS011;5615;49.304;10.576;2024-03-08T14:12:09;8.95;;;8.05;;
11121;SDS011;5615;49.304;10.576;2024-03-08T14:14:35;8.75;;;7.85;;
11121;SDS011;5615;49.304;10.576;2024-03-08T14:17:02;9.48;;;7.95;;
11121;SDS011;5615;49.304;10.576;2024-03-08T14:19:29;8.93;;;8.05;;
11121;SDS011;5615;49.304;10.576;2024-03-08T14:21:56;10.55;;;7.93;;
11121;SDS011;5615;49.304;10.576;2024-03-08T14:24:24;8.90;;;8.00;;
11121;SDS011;5615;49.304;10.576;2024-03-08T14:26:51;8.48;;;7.57;;
11121;SDS011;5615;49.304;10.576;2024-03-08T14:29:19;9.27;;;8.38;;
11121;SDS011;5615;49.304;10.576;2024-03-08T14:31:45;8.20;;;7.40;;